Time;durP1;ratioP1;P1;durP2;ratioP2;P2;SDS_P1;SDS_P2;PMS_P1;PMS_P2;Temp;Humidity;BMP_temperature;BMP_pressure;BME280_temperature;BME280_humidity;BME280_pressure;Samples;Min_cycle;Max_cycle;Signal;HPM_P1;HPM_P2
2022/05/11 00:00:04;;;;;;;;;;;17.80;99.90;;;;;;5083627;28;19932;-71
2022/05/11 00:02:38;;;;;;;;;;;17.80;99.90;;;;;;5050982;28;19957;-71
2022/05/11 00:05:06;;;;;;;;;;;17.70;99.90;;;;;;5049490;28;19929;-71
2022/05/11 00:07:33;;;;;;;;;;;17.70;99.90;;;;;;5082737;28;20012;-73
2022/05/11 00:10:00;;;;;;;;;;;17.60;99.90;;;;;;5083057;28;19924;-72
2022/05/11 00:12:28;;;;;;;;;;;17.60;99.90;;;;;;5082526;28;19931;-72
2022/05/11 00:14:55;;;;;;;;;;;17.60;99.90;;;;;;5083281;28;19924;-71
2022/05/11 00:17:21;;;;;;;;;;;17.60;99.90;;;;;;5051293;28;19928;-71
2022/05/11 00:19:48;;;;;;;;;;;17.50;99.90;;;;;;5083982;28;20408;-72
2022/05/11 00:22:15;;;;;;;;;;;17.50;99.90;;;;;;5084552;28;19929;-71
2022/05/11 00:24:42;;;;;;;;;;;17.50;99.90;;;;;;5050474;28;19925;-72
2022/05/11 00:27:09;;;;;;;;;;;17.40;99.90;;;;;;5084609;28;19925;-72
2022/05/11 00:29:37;;;;;;;;;;;17.40;99.90;;;;;;5084161;28;19928;-71
2022/05/11 00:32:04;;;;;;;;;;;17.40;99.90;;;;;;5084339;28;19929;-71
2022/05/11 00:34:31;;;;;;;;;;;17.40;99.90;;;;;;5084187;28;19925;-71
2022/05/11 00:36:58;;;;;;;;;;;17.40;99.90;;;;;;5084196;28;19928;-72
2022/05/11 00:39:24;;;;;;;;;;;17.40;99.90;;;;;;5084160;28;19934;-72
2022/05/11 00:41:51;;;;;;;;;;;17.40;99.90;;;;;;5084667;28;19925;-71
2022/05/11 00:44:18;;;;;;;;;;;17.30;99.90;;;;;;5083651;28;20455;-71
2022/05/11 00:46:50;;;;;;;;;;;17.30;99.90;;;;;;5050573;28;19924;-70
2022/05/11 00:49:35;;;;;;;;;;;17.20;99.90;;;;;;5050267;28;19933;-71
2022/05/11 00:52:04;;;;;;;;;;;17.20;99.90;;;;;;5084137;28;19924;-71
2022/05/11 00:54:33;;;;;;;;;;;17.10;99.90;;;;;;5083781;28;19925;-71
2022/05/11 00:57:02;;;;;;;;;;;17.10;99.90;;;;;;5050446;28;19932;-72
2022/05/11 00:59:32;;;;;;;;;;;17.00;99.90;;;;;;5082919;28;19932;-72
2022/05/11 01:02:04;;;;;;;;;;;16.90;99.90;;;;;;5082274;28;20015;-72
2022/05/11 01:04:32;;;;;;;;;;;16.80;99.90;;;;;;5081884;28;19932;-71
2022/05/11 01:06:58;;;;;;;;;;;16.80;99.90;;;;;;5082001;28;19975;-72
2022/05/11 01:09:25;;;;;;;;;;;16.80;99.90;;;;;;5081823;28;19925;-71
2022/05/11 01:11:55;;;;;;;;;;;16.80;99.90;;;;;;5081779;28;19925;-72
2022/05/11 01:14:23;;;;;;;;;;;16.70;99.90;;;;;;5081280;28;19978;-72
2022/05/11 01:16:50;;;;;;;;;;;16.70;99.90;;;;;;5048631;28;19925;-72
2022/05/11 01:19:23;;;;;;;;;;;16.70;99.90;;;;;;5081583;28;19925;-72
2022/05/11 01:21:52;;;;;;;;;;;16.70;99.90;;;;;;5081887;28;19932;-71
2022/05/11 01:24:32;;;;;;;;;;;16.70;99.90;;;;;;5047969;28;19960;-71
2022/05/11 01:26:58;;;;;;;;;;;16.60;99.90;;;;;;5082159;28;19928;-71
2022/05/11 01:29:25;;;;;;;;;;;16.50;99.90;;;;;;5081480;28;20474;-71
2022/05/11 01:31:52;;;;;;;;;;;16.40;99.90;;;;;;5083080;28;19929;-71
2022/05/11 01:34:21;;;;;;;;;;;16.40;99.90;;;;;;5083103;28;19929;-71
2022/05/11 01:36:49;;;;;;;;;;;16.30;99.90;;;;;;5083303;28;20323;-71
2022/05/11 01:39:16;;;;;;;;;;;16.30;99.90;;;;;;5083177;28;19925;-71
2022/05/11 01:41:50;;;;;;;;;;;16.20;99.90;;;;;;5083621;28;19932;-71
2022/05/11 01:44:18;;;;;;;;;;;16.20;99.90;;;;;;5083298;28;19970;-71
2022/05/11 01:46:46;;;;;;;;;;;16.20;99.90;;;;;;5083516;28;19932;-71
2022/05/11 01:49:13;;;;;;;;;;;16.10;99.90;;;;;;5083274;28;19925;-71
2022/05/11 01:51:40;;;;;;;;;;;16.20;99.90;;;;;;5083047;28;19924;-70
2022/05/11 01:54:07;;;;;;;;;;;16.20;99.90;;;;;;5049645;28;19982;-72
2022/05/11 01:56:33;;;;;;;;;;;16.20;99.90;;;;;;5083591;28;19924;-70
2022/05/11 01:59:02;;;;;;;;;;;16.10;99.90;;;;;;5083277;28;19931;-71
2022/05/11 02:01:30;;;;;;;;;;;16.00;99.90;;;;;;5082240;28;19925;-72
2022/05/11 02:03:57;;;;;;;;;;;16.00;99.90;;;;;;5080940;28;19932;-72
2022/05/11 02:09:09;;;;;;;;;;;16.00;99.90;;;;;;5047700;28;19921;-72
2022/05/11 02:11:36;;;;;;;;;;;16.00;99.90;;;;;;5081517;28;19932;-71
2022/05/11 02:14:05;;;;;;;;;;;15.90;99.90;;;;;;5083256;28;20339;-70
2022/05/11 02:16:32;;;;;;;;;;;15.90;99.90;;;;;;5083282;28;19925;-73
2022/05/11 02:18:59;;;;;;;;;;;15.90;99.90;;;;;;5082950;28;19925;-71
2022/05/11 02:21:26;;;;;;;;;;;15.90;99.90;;;;;;5049777;28;19925;-72
2022/05/11 02:23:53;;;;;;;;;;;15.90;99.90;;;;;;5082938;28;19925;-70
2022/05/11 02:26:20;;;;;;;;;;;15.90;99.90;;;;;;5083530;28;20155;-71
2022/05/11 02:28:48;;;;;;;;;;;15.80;99.90;;;;;;5083617;28;19929;-69
2022/05/11 02:31:16;;;;;;;;;;;15.80;99.90;;;;;;5049753;28;20454;-69
2022/05/11 02:33:43;;;;;;;;;;;15.80;99.90;;;;;;5082965;28;19928;-71
2022/05/11 02:36:10;;;;;;;;;;;15.80;99.90;;;;;;5083018;28;19925;-71
2022/05/11 02:38:37;;;;;;;;;;;15.70;99.90;;;;;;5083089;28;19974;-73
2022/05/11 02:41:04;;;;;;;;;;;15.70;99.90;;;;;;5082939;28;19924;-71
2022/05/11 02:43:32;;;;;;;;;;;15.70;99.90;;;;;;5085181;28;19929;-73
2022/05/11 02:45:59;;;;;;;;;;;15.60;99.90;;;;;;5086797;28;19928;-71
2022/05/11 02:48:30;;;;;;;;;;;15.60;99.90;;;;;;5086677;28;19925;-71
2022/05/11 02:50:57;;;;;;;;;;;15.60;99.90;;;;;;5086459;28;19976;-71
2022/05/11 02:53:26;;;;;;;;;;;15.60;99.90;;;;;;5086455;28;20289;-70
2022/05/11 02:55:54;;;;;;;;;;;15.60;99.90;;;;;;5086509;28;19924;-71
2022/05/11 02:58:21;;;;;;;;;;;15.60;99.90;;;;;;5084875;28;19929;-71
2022/05/11 03:00:50;;;;;;;;;;;15.60;99.90;;;;;;5050665;28;19959;-71
2022/05/11 03:03:18;;;;;;;;;;;15.60;99.90;;;;;;5050704;28;19932;-71
2022/05/11 03:05:47;;;;;;;;;;;15.60;99.90;;;;;;5050227;28;19929;-72
2022/05/11 03:08:14;;;;;;;;;;;15.60;99.90;;;;;;5049322;28;20408;-71
2022/05/11 03:10:41;;;;;;;;;;;15.60;99.90;;;;;;5047993;28;19928;-72
2022/05/11 03:13:08;;;;;;;;;;;15.60;99.90;;;;;;5084292;28;19960;-71
2022/05/11 03:15:35;;;;;;;;;;;15.60;99.90;;;;;;5050732;28;19974;-71
2022/05/11 03:18:02;;;;;;;;;;;15.60;99.90;;;;;;5050773;28;19925;-71
2022/05/11 03:20:29;;;;;;;;;;;15.70;99.90;;;;;;5050135;28;20024;-74
2022/05/11 03:22:57;;;;;;;;;;;15.60;99.90;;;;;;5050420;28;19947;-71
2022/05/11 03:25:25;;;;;;;;;;;15.60;99.90;;;;;;5050188;28;19925;-72
2022/05/11 03:27:53;;;;;;;;;;;15.60;99.90;;;;;;5050481;28;19964;-71
2022/05/11 03:30:20;;;;;;;;;;;15.50;99.90;;;;;;5050015;28;19948;-71
2022/05/11 03:35:31;;;;;;;;;;;15.40;99.90;;;;;;5068826;28;19921;-71
2022/05/11 03:37:59;;;;;;;;;;;15.40;99.90;;;;;;5052240;28;19924;-71
2022/05/11 03:40:26;;;;;;;;;;;15.30;99.90;;;;;;5051560;28;19928;-73
2022/05/11 03:42:53;;;;;;;;;;;;;;;;;;5051843;28;19932;-69
2022/05/11 03:45:21;;;;;;;;;;;15.40;99.90;;;;;;5075868;22;19924;-70
2022/05/11 03:47:48;;;;;;;;;;;15.30;99.90;;;;;;5053005;28;19928;-70
2022/05/11 03:50:15;;;;;;;;;;;15.20;99.90;;;;;;5051371;28;19929;-70
2022/05/11 03:52:42;;;;;;;;;;;15.20;99.90;;;;;;5053248;28;19968;-70
2022/05/11 03:55:11;;;;;;;;;;;15.10;99.90;;;;;;5051724;28;19960;-71
2022/05/11 03:57:38;;;;;;;;;;;15.10;99.90;;;;;;5051758;28;19972;-70
2022/05/11 04:00:06;;;;;;;;;;;15.10;99.90;;;;;;5052622;28;19932;-71
2022/05/11 04:02:39;;;;;;;;;;;15.10;99.90;;;;;;5051511;28;19925;-71
2022/05/11 04:05:06;;;;;;;;;;;15.10;99.90;;;;;;5049228;28;20020;-71
2022/05/11 04:07:33;;;;;;;;;;;15.10;99.90;;;;;;5049770;28;19960;-70
2022/05/11 04:09:59;;;;;;;;;;;15.20;99.90;;;;;;5051049;28;19924;-70
2022/05/11 04:12:29;;;;;;;;;;;15.20;99.90;;;;;;5050847;28;19963;-70
2022/05/11 04:14:56;;;;;;;;;;;15.10;99.90;;;;;;5050450;28;19924;-70
2022/05/11 04:17:23;;;;;;;;;;;15.00;99.90;;;;;;5049741;28;19925;-70
2022/05/11 04:19:50;;;;;;;;;;;15.00;99.90;;;;;;5050557;28;20025;-70
2022/05/11 04:22:16;;;;;;;;;;;15.10;99.90;;;;;;5049342;28;19971;-71
2022/05/11 04:24:43;;;;;;;;;;;15.10;99.90;;;;;;5049083;28;20430;-70
2022/05/11 04:27:10;;;;;;;;;;;15.00;99.90;;;;;;5049810;28;19924;-71
2022/05/11 04:29:38;;;;;;;;;;;15.00;99.90;;;;;;5050247;28;20019;-70
2022/05/11 04:32:05;;;;;;;;;;;15.00;99.90;;;;;;5048963;28;20027;-70
2022/05/11 04:34:32;;;;;;;;;;;15.00;99.90;;;;;;5050699;28;19978;-70
2022/05/11 04:36:59;;;;;;;;;;;15.00;99.90;;;;;;5051037;28;20036;-70
2022/05/11 04:39:25;;;;;;;;;;;15.00;99.90;;;;;;5050569;28;19928;-71
2022/05/11 04:41:52;;;;;;;;;;;14.90;99.90;;;;;;5050817;28;19974;-70
2022/05/11 04:44:19;;;;;;;;;;;14.90;99.90;;;;;;5050165;28;19929;-70
2022/05/11 04:46:47;;;;;;;;;;;14.80;99.90;;;;;;5050636;28;19950;-71
2022/05/11 04:49:20;;;;;;;;;;;14.80;99.90;;;;;;5050309;28;19925;-71
2022/05/11 04:51:48;;;;;;;;;;;14.70;99.90;;;;;;5050491;28;19948;-70
2022/05/11 04:54:14;;;;;;;;;;;14.70;99.90;;;;;;5050273;28;19925;-70
2022/05/11 04:56:41;;;;;;;;;;;14.70;99.90;;;;;;5050432;28;19975;-70
2022/05/11 04:59:09;;;;;;;;;;;14.60;99.90;;;;;;5050228;28;19986;-71
2022/05/11 05:01:36;;;;;;;;;;;14.60;99.90;;;;;;5047038;28;20331;-70
2022/05/11 05:04:04;;;;;;;;;;;14.60;99.90;;;;;;5045192;28;19925;-71
2022/05/11 05:06:33;;;;;;;;;;;14.50;99.90;;;;;;5050586;28;20347;-71
2022/05/11 05:09:00;;;;;;;;;;;14.60;99.90;;;;;;5050050;28;19968;-69
2022/05/11 05:11:27;;;;;;;;;;;14.70;99.90;;;;;;5040018;28;19933;-71
2022/05/11 05:13:53;;;;;;;;;;;14.80;99.90;;;;;;5030070;28;19925;-71
2022/05/11 05:16:20;;;;;;;;;;;14.90;99.90;;;;;;5030236;28;19925;-73
2022/05/11 05:18:47;;;;;;;;;;;15.10;99.90;;;;;;5047494;28;19983;-70
2022/05/11 05:21:15;;;;;;;;;;;15.20;99.90;;;;;;5066016;28;19924;-71
2022/05/11 05:23:42;;;;;;;;;;;15.20;99.90;;;;;;5069535;28;19929;-71
2022/05/11 05:26:09;;;;;;;;;;;15.20;99.90;;;;;;5070304;28;19935;-71
2022/05/11 05:31:21;;;;;;;;;;;15.30;99.90;;;;;;5069562;28;20007;-71
2022/05/11 05:33:49;;;;;;;;;;;15.40;99.90;;;;;;5069577;28;19925;-71
2022/05/11 05:36:17;;;;;;;;;;;15.40;99.90;;;;;;5066442;28;19925;-71
2022/05/11 05:38:44;;;;;;;;;;;15.50;99.90;;;;;;5049855;28;19955;-70
2022/05/11 05:41:11;;;;;;;;;;;15.60;99.90;;;;;;5053902;28;19982;-70
2022/05/11 05:43:39;;;;;;;;;;;15.60;99.90;;;;;;5053096;28;19933;-70
2022/05/11 05:46:06;;;;;;;;;;;15.70;99.90;;;;;;5050757;28;20343;-71
2022/05/11 05:48:33;;;;;;;;;;;15.70;99.90;;;;;;5064418;28;20323;-71
2022/05/11 05:51:04;;;;;;;;;;;15.80;99.90;;;;;;5062063;28;19925;-70
2022/05/11 05:53:32;;;;;;;;;;;15.90;99.90;;;;;;5065454;28;19939;-71
2022/05/11 05:55:59;;;;;;;;;;;15.90;99.90;;;;;;5053236;28;19924;-71
2022/05/11 05:58:26;;;;;;;;;;;16.00;99.90;;;;;;5062466;28;19928;-71
2022/05/11 06:00:53;;;;;;;;;;;16.10;99.90;;;;;;5069592;28;19952;-71
2022/05/11 06:03:20;;;;;;;;;;;16.20;99.90;;;;;;5064887;28;19925;-70
2022/05/11 06:05:47;;;;;;;;;;;16.30;99.90;;;;;;5069172;28;19954;-71
2022/05/11 06:08:15;;;;;;;;;;;16.30;99.90;;;;;;5067340;28;19935;-70
2022/05/11 06:10:44;;;;;;;;;;;16.40;99.90;;;;;;5068391;28;19925;-71
2022/05/11 06:13:12;;;;;;;;;;;16.60;99.90;;;;;;5070277;28;20484;-77
2022/05/11 06:15:39;;;;;;;;;;;16.70;99.90;;;;;;5054251;28;19925;-76
2022/05/11 06:18:07;;;;;;;;;;;16.80;99.90;;;;;;5071693;28;19925;-77
2022/05/11 06:20:34;;;;;;;;;;;16.80;99.90;;;;;;5072883;28;19925;-75
2022/05/11 06:23:01;;;;;;;;;;;16.80;99.90;;;;;;5071956;28;19924;-76
2022/05/11 06:25:28;;;;;;;;;;;17.00;99.90;;;;;;5071751;28;19924;-76
2022/05/11 06:27:58;;;;;;;;;;;17.10;99.90;;;;;;5072198;28;19925;-71
2022/05/11 06:30:25;;;;;;;;;;;17.20;99.90;;;;;;5065722;28;20447;-71
2022/05/11 06:32:52;;;;;;;;;;;17.20;99.90;;;;;;5053920;28;19994;-71
2022/05/11 06:35:18;;;;;;;;;;;17.30;99.90;;;;;;5055176;28;19924;-71
2022/05/11 06:37:45;;;;;;;;;;;17.40;99.90;;;;;;5067707;28;20018;-71
2022/05/11 06:40:13;;;;;;;;;;;17.50;99.90;;;;;;5073512;28;19982;-70
2022/05/11 06:42:41;;;;;;;;;;;17.70;99.90;;;;;;5073917;28;20365;-71
2022/05/11 06:45:10;;;;;;;;;;;17.80;99.90;;;;;;5072793;28;19986;-71
2022/05/11 06:47:37;;;;;;;;;;;18.00;99.90;;;;;;5073506;28;19978;-71
2022/05/11 06:50:04;;;;;;;;;;;18.10;99.90;;;;;;5072983;28;19924;-70
2022/05/11 06:52:31;;;;;;;;;;;18.10;99.90;;;;;;5072257;28;20022;-69
2022/05/11 07:00:29;;;;;;;;;;;18.40;99.90;;;;;;5072439;28;19921;-71
2022/05/11 07:02:56;;;;;;;;;;;18.50;99.90;;;;;;5074090;28;19925;-70
2022/05/11 07:05:23;;;;;;;;;;;18.70;99.90;;;;;;5073848;28;19931;-71
2022/05/11 07:07:51;;;;;;;;;;;18.70;99.90;;;;;;5073983;28;19967;-70
2022/05/11 07:10:18;;;;;;;;;;;18.80;99.90;;;;;;5069555;28;19924;-71
2022/05/11 07:12:46;;;;;;;;;;;18.90;99.90;;;;;;5052542;28;19925;-71
2022/05/11 07:15:14;;;;;;;;;;;19.00;99.90;;;;;;5051979;28;20378;-71
2022/05/11 07:17:43;;;;;;;;;;;19.00;99.90;;;;;;5053783;28;19983;-71
2022/05/11 07:20:11;;;;;;;;;;;19.00;99.90;;;;;;5053516;28;20028;-71
2022/05/11 07:22:38;;;;;;;;;;;19.00;99.90;;;;;;5052425;28;19967;-70
2022/05/11 07:25:05;;;;;;;;;;;19.10;99.90;;;;;;5053303;28;20407;-71
2022/05/11 07:27:32;;;;;;;;;;;19.10;99.90;;;;;;5052357;28;19963;-71
2022/05/11 07:29:59;;;;;;;;;;;19.20;99.90;;;;;;5050900;28;19925;-71
2022/05/11 07:32:27;;;;;;;;;;;19.20;99.90;;;;;;5052232;28;20289;-71
2022/05/11 07:34:55;;;;;;;;;;;19.30;99.90;;;;;;5051921;28;19947;-71
2022/05/11 07:37:21;;;;;;;;;;;19.40;99.90;;;;;;5052034;28;20005;-71
2022/05/11 07:39:48;;;;;;;;;;;19.40;99.90;;;;;;5085445;28;20289;-71
2022/05/11 07:42:16;;;;;;;;;;;19.50;99.90;;;;;;5052468;28;19925;-71
2022/05/11 07:44:43;;;;;;;;;;;19.40;99.90;;;;;;5051011;28;19925;-71
2022/05/11 07:47:10;;;;;;;;;;;19.40;99.90;;;;;;5087033;28;20472;-71
2022/05/11 07:49:38;;;;;;;;;;;19.40;99.90;;;;;;5066311;28;19964;-71
2022/05/11 07:52:07;;;;;;;;;;;19.50;99.90;;;;;;5066495;28;19924;-70
2022/05/11 07:54:34;;;;;;;;;;;19.50;99.90;;;;;;5071693;28;20465;-71
2022/05/11 07:59:56;;;;;;;;;;;19.60;99.90;;;;;;5071565;28;19920;-70
2022/05/11 08:02:26;;;;;;;;;;;19.60;99.90;;;;;;5071937;28;19924;-71
2022/05/11 08:04:57;;;;;;;;;;;19.60;99.90;;;;;;5071143;28;19925;-70
2022/05/11 08:07:27;;;;;;;;;;;19.70;99.90;;;;;;5071725;28;19924;-71
2022/05/11 08:09:57;;;;;;;;;;;19.80;99.90;;;;;;5071140;28;20015;-71
2022/05/11 08:12:23;;;;;;;;;;;19.80;99.90;;;;;;5050982;28;19925;-71
2022/05/11 08:14:50;;;;;;;;;;;19.80;99.90;;;;;;5050857;28;19936;-71
2022/05/11 08:17:23;;;;;;;;;;;19.90;99.90;;;;;;5051334;28;19929;-70
2022/05/11 08:19:49;;;;;;;;;;;19.90;99.90;;;;;;5051208;28;19925;-71
2022/05/11 08:22:16;;;;;;;;;;;20.00;99.90;;;;;;5051184;28;19925;-71
2022/05/11 08:24:45;;;;;;;;;;;20.00;99.90;;;;;;5050573;28;19928;-71
2022/05/11 08:27:12;;;;;;;;;;;20.00;99.90;;;;;;5051002;28;19933;-71
2022/05/11 08:35:07;;;;;;;;;;;20.10;99.90;;;;;;5050591;28;19921;-71
2022/05/11 08:37:34;;;;;;;;;;;20.20;99.90;;;;;;5050644;28;19929;-71
2022/05/11 08:40:03;;;;;;;;;;;20.20;99.90;;;;;;5050534;28;19978;-71
2022/05/11 08:42:31;;;;;;;;;;;20.20;99.90;;;;;;5050777;28;19925;-71
2022/05/11 08:45:01;;;;;;;;;;;20.40;99.90;;;;;;5050201;28;20372;-71
2022/05/11 08:47:33;;;;;;;;;;;20.40;99.90;;;;;;5050785;28;19925;-71
2022/05/11 08:50:04;;;;;;;;;;;20.50;99.90;;;;;;5050350;28;19932;-71
2022/05/11 08:52:36;;;;;;;;;;;20.60;99.90;;;;;;5050602;28;19925;-70
2022/05/11 08:55:08;;;;;;;;;;;20.50;99.90;;;;;;5050199;28;20355;-70
2022/05/11 08:57:36;;;;;;;;;;;20.50;99.90;;;;;;5050569;28;19929;-70
2022/05/11 09:00:06;;;;;;;;;;;20.40;99.90;;;;;;5061438;28;19935;-70
2022/05/11 09:02:37;;;;;;;;;;;20.40;99.90;;;;;;5070244;28;20319;-70
2022/05/11 09:05:05;;;;;;;;;;;20.50;99.90;;;;;;5069993;28;20013;-70
2022/05/11 09:07:34;;;;;;;;;;;20.60;99.90;;;;;;5070313;28;19981;-70
2022/05/11 09:10:01;;;;;;;;;;;20.60;99.90;;;;;;5059633;28;19924;-70
2022/05/11 09:12:29;;;;;;;;;;;20.50;99.90;;;;;;5069900;28;19925;-70
2022/05/11 09:14:59;;;;;;;;;;;20.60;99.90;;;;;;5070265;28;19931;-70
2022/05/11 09:17:27;;;;;;;;;;;20.60;99.90;;;;;;5070355;28;19978;-70
2022/05/11 09:20:02;;;;;;;;;;;20.60;99.90;;;;;;5070344;28;19928;-70
2022/05/11 09:22:29;;;;;;;;;;;20.80;99.90;;;;;;5070203;28;19948;-70
2022/05/11 09:24:57;;;;;;;;;;;20.80;99.90;;;;;;5070140;28;19931;-70
2022/05/11 09:27:25;;;;;;;;;;;20.90;99.90;;;;;;5070209;28;19924;-70
2022/05/11 09:29:58;;;;;;;;;;;20.80;99.90;;;;;;5069711;28;19951;-70
2022/05/11 09:32:26;;;;;;;;;;;20.70;99.90;;;;;;5070171;28;20411;-70
2022/05/11 09:34:54;;;;;;;;;;;20.80;99.90;;;;;;5069809;28;19963;-70
2022/05/11 09:37:26;;;;;;;;;;;21.00;99.90;;;;;;5070484;28;19931;-68
2022/05/11 09:39:54;;;;;;;;;;;21.00;99.90;;;;;;5070110;28;19928;-70
2022/05/11 09:42:26;;;;;;;;;;;21.00;99.90;;;;;;5066809;28;19929;-70
2022/05/11 09:44:54;;;;;;;;;;;21.10;99.90;;;;;;5065800;28;20331;-70
2022/05/11 09:47:29;;;;;;;;;;;21.10;99.90;;;;;;5063509;28;20380;-68
2022/05/11 09:49:57;;;;;;;;;;;21.10;99.90;;;;;;5071951;28;19925;-68
2022/05/11 09:52:30;;;;;;;;;;;21.20;99.90;;;;;;5071050;28;19928;-67
2022/05/11 09:54:57;;;;;;;;;;;21.20;99.90;;;;;;5071247;28;20379;-67
2022/05/11 09:57:27;;;;;;;;;;;21.20;99.90;;;;;;5071568;28;20295;-68
2022/05/11 09:59:56;;;;;;;;;;;21.40;99.90;;;;;;5071162;28;19947;-70
2022/05/11 10:02:26;;;;;;;;;;;21.50;99.90;;;;;;5069901;28;19928;-70
2022/05/11 10:04:58;;;;;;;;;;;21.60;99.90;;;;;;5069473;28;19935;-70
2022/05/11 10:07:26;;;;;;;;;;;21.70;99.90;;;;;;5069587;28;19924;-70
2022/05/11 10:09:55;;;;;;;;;;;21.70;99.90;;;;;;5069491;28;19928;-70
2022/05/11 10:12:25;;;;;;;;;;;21.60;99.90;;;;;;5068960;28;19929;-70
2022/05/11 10:23:12;;;;;;;;;;;22.10;99.90;;;;;;5070751;28;19925;-70
2022/05/11 10:25:40;;;;;;;;;;;22.20;99.90;;;;;;5070102;28;20450;-70
2022/05/11 10:28:11;;;;;;;;;;;22.30;99.90;;;;;;5070756;28;19932;-70
2022/05/11 10:30:44;;;;;;;;;;;22.40;99.90;;;;;;5065504;28;19925;-70
2022/05/11 10:33:22;;;;;;;;;;;22.50;99.90;;;;;;5070211;28;19970;-70
2022/05/11 10:35:55;;;;;;;;;;;22.50;99.90;;;;;;5070381;28;19928;-70
2022/05/11 10:38:27;;;;;;;;;;;22.60;99.90;;;;;;5070361;28;20387;-70
2022/05/11 10:40:59;;;;;;;;;;;22.70;99.90;;;;;;5070028;28;19929;-70
2022/05/11 10:43:37;;;;;;;;;;;22.80;99.90;;;;;;5069908;28;19928;-70
2022/05/11 10:46:07;;;;;;;;;;;22.70;99.90;;;;;;5070186;28;19928;-70
2022/05/11 10:48:43;;;;;;;;;;;22.70;99.90;;;;;;5067441;28;19928;-70
2022/05/11 10:51:16;;;;;;;;;;;23.00;99.90;;;;;;5070195;28;19925;-70
2022/05/11 10:53:43;;;;;;;;;;;23.10;99.90;;;;;;5069704;28;19924;-70
2022/05/11 10:56:18;;;;;;;;;;;23.10;99.90;;;;;;5069962;28;19924;-70
2022/05/11 10:58:54;;;;;;;;;;;23.20;99.90;;;;;;5069847;28;20453;-69
2022/05/11 11:01:22;;;;;;;;;;;23.30;99.90;;;;;;5070417;28;19924;-70
2022/05/11 11:04:05;;;;;;;;;;;23.40;99.90;;;;;;5058937;28;19925;-70
2022/05/11 11:09:40;;;;;;;;;;;23.60;99.90;;;;;;5054834;28;19924;-70
2022/05/11 11:12:13;;;;;;;;;;;23.60;99.90;;;;;;5071705;28;19925;-70
2022/05/11 11:14:44;;;;;;;;;;;23.70;99.90;;;;;;5060628;28;19963;-70
2022/05/11 11:17:13;;;;;;;;;;;23.80;99.90;;;;;;5072105;28;19974;-70
2022/05/11 11:19:41;;;;;;;;;;;23.90;99.90;;;;;;5072346;28;19928;-71
2022/05/11 11:22:08;;;;;;;;;;;23.90;99.90;;;;;;5072205;28;19931;-70
2022/05/11 11:24:41;;;;;;;;;;;24.10;99.90;;;;;;5071443;28;19985;-71
2022/05/11 11:27:08;;;;;;;;;;;24.30;99.90;;;;;;5072062;28;19928;-70
2022/05/11 11:29:36;;;;;;;;;;;24.30;99.90;;;;;;5071839;28;19932;-71
2022/05/11 11:32:08;;;;;;;;;;;24.10;99.90;;;;;;5072327;28;19978;-70
2022/05/11 11:34:35;;;;;;;;;;;24.50;99.90;;;;;;5071727;28;19929;-70
2022/05/11 11:37:17;;;;;;;;;;;24.70;99.90;;;;;;5072199;28;20054;-70
2022/05/11 11:39:52;;;;;;;;;;;25.00;99.90;;;;;;5070945;28;19924;-71
2022/05/11 11:42:36;;;;;;;;;;;25.50;99.90;;;;;;5069328;28;19932;-70
2022/05/11 11:45:04;;;;;;;;;;;28.60;99.90;;;;;;5053896;28;19924;-70
2022/05/11 11:47:58;;;;;;;;;;;30.70;99.90;;;;;;5071456;28;19929;-70
2022/05/11 11:50:45;;;;;;;;;;;31.30;99.90;;;;;;5069948;28;19932;-71
2022/05/11 11:53:13;;;;;;;;;;;32.20;99.90;;;;;;5067438;28;19924;-70
2022/05/11 11:55:41;;;;;;;;;;;33.20;99.90;;;;;;5066185;28;20335;-71
2022/05/11 11:58:13;;;;;;;;;;;33.40;99.90;;;;;;5071565;28;20447;-71
2022/05/11 12:00:59;;;;;;;;;;;34.10;99.90;;;;;;5071579;28;19931;-70
2022/05/11 12:03:27;;;;;;;;;;;33.70;99.90;;;;;;5071215;28;20449;-71
2022/05/11 12:05:55;;;;;;;;;;;35.00;99.90;;;;;;5071628;28;19982;-71
2022/05/11 12:16:44;;;;;;;;;;;35.90;99.90;;;;;;5066397;28;19920;-71
2022/05/11 12:19:12;;;;;;;;;;;36.70;99.90;;;;;;5071485;28;19931;-71
2022/05/11 12:21:40;;;;;;;;;;;37.20;99.90;;;;;;5071241;28;19929;-71
2022/05/11 12:24:10;;;;;;;;;;;34.20;99.90;;;;;;5058245;28;19933;-71
2022/05/11 12:26:39;;;;;;;;;;;34.70;99.90;;;;;;5053133;28;19925;-71
2022/05/11 12:32:07;;;;;;;;;;;35.70;99.90;;;;;;5005150;28;20064;-71
2022/05/11 12:34:41;;;;;;;;;;;36.20;99.90;;;;;;5041555;28;20372;-71
2022/05/11 12:37:21;;;;;;;;;;;36.20;99.90;;;;;;5050538;28;19936;-71
2022/05/11 12:39:54;;;;;;;;;;;36.40;99.90;;;;;;5050454;28;20400;-72
2022/05/11 12:42:28;;;;;;;;;;;35.80;99.90;;;;;;5050832;28;19925;-72
2022/05/11 12:44:55;;;;;;;;;;;35.40;99.90;;;;;;5050299;28;19925;-72
2022/05/11 12:47:22;;;;;;;;;;;36.30;99.90;;;;;;5050622;28;20350;-72
2022/05/11 12:49:49;;;;;;;;;;;36.60;99.90;;;;;;5050488;28;19924;-72
2022/05/11 12:52:17;;;;;;;;;;;36.80;99.90;;;;;;5050400;28;19937;-72
2022/05/11 12:54:55;;;;;;;;;;;38.30;99.90;;;;;;5050521;28;20420;-71
2022/05/11 12:57:21;;;;;;;;;;;37.60;99.90;;;;;;5052481;28;19970;-71
2022/05/11 12:59:51;;;;;;;;;;;37.70;99.90;;;;;;5050017;28;20347;-72
2022/05/11 13:02:19;;;;;;;;;;;38.80;99.90;;;;;;5048881;28;19925;-71
2022/05/11 13:04:51;;;;;;;;;;;38.20;99.90;;;;;;5050063;28;19929;-72
2022/05/11 13:07:20;;;;;;;;;;;38.10;99.90;;;;;;5050287;28;19972;-71
2022/05/11 13:09:47;;;;;;;;;;;39.30;99.90;;;;;;5049959;28;20408;-72
2022/05/11 13:12:15;;;;;;;;;;;39.00;99.90;;;;;;5050547;28;19924;-71
2022/05/11 13:14:45;;;;;;;;;;;37.00;99.90;;;;;;5052176;28;19979;-71
2022/05/11 13:17:19;;;;;;;;;;;36.00;99.90;;;;;;5049910;28;20285;-71
2022/05/11 13:19:52;;;;;;;;;;;35.60;99.90;;;;;;5049971;28;19932;-71
2022/05/11 13:22:21;;;;;;;;;;;36.00;99.90;;;;;;5046597;28;19975;-71
2022/05/11 13:24:50;;;;;;;;;;;36.00;99.90;;;;;;5051697;28;19929;-72
2022/05/11 13:27:30;;;;;;;;;;;36.10;99.90;;;;;;5057950;28;19932;-72
2022/05/11 13:30:09;;;;;;;;;;;35.90;99.90;;;;;;5054988;28;19925;-71
2022/05/11 13:32:38;;;;;;;;;;;36.50;99.90;;;;;;5078751;28;20358;-71
2022/05/11 13:35:15;;;;;;;;;;;36.80;99.90;;;;;;5069706;28;19928;-71
2022/05/11 13:37:42;;;;;;;;;;;36.20;99.90;;;;;;5070854;28;19924;-72
2022/05/11 13:40:09;;;;;;;;;;;37.60;99.90;;;;;;5070839;28;20293;-72
2022/05/11 13:42:36;;;;;;;;;;;37.30;99.90;;;;;;5070897;28;19928;-72
2022/05/11 13:45:05;;;;;;;;;;;36.60;99.90;;;;;;5068569;28;20338;-71
2022/05/11 13:50:31;;;;;;;;;;;36.30;99.90;;;;;;5056628;28;20427;-72
2022/05/11 13:52:58;;;;;;;;;;;35.30;99.10;;;;;;5051556;28;19939;-72
2022/05/11 13:55:28;;;;;;;;;;;35.70;99.90;;;;;;5051748;28;20354;-72
2022/05/11 13:57:54;;;;;;;;;;;33.30;99.90;;;;;;5052398;28;19925;-72
2022/05/11 14:00:24;;;;;;;;;;;33.40;99.90;;;;;;5056797;28;20396;-72
2022/05/11 14:02:54;;;;;;;;;;;35.60;99.90;;;;;;5054774;28;19925;-72
2022/05/11 14:05:22;;;;;;;;;;;36.60;99.80;;;;;;5054751;28;20355;-72
2022/05/11 14:07:49;;;;;;;;;;;36.50;99.40;;;;;;5053807;28;19925;-72
2022/05/11 14:10:17;;;;;;;;;;;35.70;99.10;;;;;;5056489;28;19929;-72
2022/05/11 14:12:43;;;;;;;;;;;35.00;99.40;;;;;;5056022;28;20339;-72
2022/05/11 14:15:10;;;;;;;;;;;33.90;99.60;;;;;;5053348;28;19929;-71
2022/05/11 14:17:41;;;;;;;;;;;35.20;99.80;;;;;;5055904;28;19933;-72
2022/05/11 14:20:09;;;;;;;;;;;35.40;99.90;;;;;;5053765;28;19925;-72
2022/05/11 14:22:38;;;;;;;;;;;35.30;99.80;;;;;;5055580;28;19925;-72
2022/05/11 14:25:06;;;;;;;;;;;35.10;99.70;;;;;;5048829;28;19960;-72
2022/05/11 14:27:32;;;;;;;;;;;36.60;99.90;;;;;;5056683;28;19932;-72
2022/05/11 14:29:59;;;;;;;;;;;36.80;98.80;;;;;;5054831;28;19933;-72
2022/05/11 14:32:27;;;;;;;;;;;36.20;98.10;;;;;;5060265;28;19924;-72
2022/05/11 14:34:54;;;;;;;;;;;35.50;98.50;;;;;;5063731;28;19960;-71
2022/05/11 14:37:21;;;;;;;;;;;35.20;98.90;;;;;;5065978;28;19924;-72
2022/05/11 14:39:50;;;;;;;;;;;34.60;98.80;;;;;;5072187;28;20452;-72
2022/05/11 14:42:17;;;;;;;;;;;34.70;99.60;;;;;;5071230;28;20356;-72
2022/05/11 14:44:44;;;;;;;;;;;;;;;;;;5069056;28;20400;-69
2022/05/11 14:47:12;;;;;;;;;;;32.70;98.20;;;;;;5065185;28;20025;-69
2022/05/11 14:49:38;;;;;;;;;;;32.70;99.00;;;;;;5065763;28;19924;-68
2022/05/11 14:52:05;;;;;;;;;;;;;;;;;;5070967;28;19935;-68
2022/05/11 14:54:33;;;;;;;;;;;;;;;;;;5064152;28;19925;-68
2022/05/11 15:02:26;;;;;;;;;;;30.80;99.40;;;;;;5070387;28;20319;-68
2022/05/11 15:04:53;;;;;;;;;;;30.30;99.40;;;;;;5070744;28;20449;-69
2022/05/11 15:07:21;;;;;;;;;;;30.40;99.90;;;;;;5070307;28;19932;-68
2022/05/11 15:09:48;;;;;;;;;;;30.50;99.90;;;;;;5070881;28;19986;-69
2022/05/11 15:15:00;;;;;;;;;;;;;;;;;;5064158;28;19913;-69
2022/05/11 15:17:30;;;;;;;;;;;29.70;99.90;;;;;;5072511;28;19928;-69
2022/05/11 15:20:00;;;;;;;;;;;29.30;99.90;;;;;;5071924;28;19974;-69
2022/05/11 15:22:27;;;;;;;;;;;29.30;99.90;;;;;;5072272;28;19938;-67